createdAt,value
2023-03-17T00:01:55.993Z,-2.78
2023-03-17T00:04:28.157Z,-2.78
2023-03-17T00:06:59.927Z,-2.79
2023-03-17T00:09:31.270Z,-2.80
2023-03-17T00:12:02.911Z,-2.81
2023-03-17T00:14:33.819Z,-2.82
2023-03-17T00:17:04.903Z,-2.84
2023-03-17T00:19:37.561Z,-2.88
2023-03-17T00:22:18.151Z,-2.91
2023-03-17T00:24:49.644Z,-2.94
2023-03-17T00:27:20.848Z,-2.93
2023-03-17T00:29:51.883Z,-2.93
2023-03-17T00:32:23.847Z,-2.93
2023-03-17T00:34:55.086Z,-2.94
2023-03-17T00:37:26.127Z,-2.97
2023-03-17T00:39:57.384Z,-3.03
2023-03-17T00:42:28.729Z,-3.04
2023-03-17T00:44:59.774Z,-3.01
2023-03-17T00:47:30.916Z,-3.02
2023-03-17T00:50:02.014Z,-3.04
2023-03-17T00:52:34.504Z,-3.06
2023-03-17T00:55:06.065Z,-3.07
2023-03-17T00:57:37.812Z,-3.09
2023-03-17T01:00:18.457Z,-3.09
2023-03-17T01:02:50.038Z,-3.10
2023-03-17T01:05:19.889Z,-3.10
2023-03-17T01:07:54.167Z,-3.12
2023-03-17T01:10:27.166Z,-3.13
2023-03-17T01:12:59.970Z,-3.12
2023-03-17T01:15:32.948Z,-3.13
2023-03-17T01:18:04.657Z,-3.13
2023-03-17T01:20:37.093Z,-3.12
2023-03-17T01:23:08.435Z,-3.12
2023-03-17T01:25:39.630Z,-3.11
2023-03-17T01:28:14.282Z,-3.11
2023-03-17T01:30:45.780Z,-3.11
2023-03-17T01:33:17.277Z,-3.11
2023-03-17T01:35:47.309Z,-3.12
2023-03-17T01:38:18.923Z,-3.13
2023-03-17T01:40:49.599Z,-3.13
2023-03-17T01:43:23.674Z,-3.14
2023-03-17T01:46:22.955Z,-3.16
2023-03-17T01:49:04.282Z,-3.16
2023-03-17T01:51:40.469Z,-3.19
2023-03-17T01:54:17.130Z,-3.21
2023-03-17T01:56:52.862Z,-3.22
2023-03-17T01:59:28.703Z,-3.24
2023-03-17T02:02:04.768Z,-3.24
2023-03-17T02:04:37.011Z,-3.24
2023-03-17T02:07:08.858Z,-3.23
2023-03-17T02:09:40.133Z,-3.23
2023-03-17T02:12:13.606Z,-3.24
2023-03-17T02:14:45.276Z,-3.25
2023-03-17T02:17:16.601Z,-3.28
2023-03-17T02:19:47.947Z,-3.34
2023-03-17T02:22:18.700Z,-3.42
2023-03-17T02:24:53.217Z,-3.50
2023-03-17T02:27:27.824Z,-3.57
2023-03-17T02:30:00.223Z,-3.62
2023-03-17T02:32:36.286Z,-3.63
2023-03-17T02:35:08.757Z,-3.61
2023-03-17T02:37:40.195Z,-3.58
2023-03-17T02:40:14.536Z,-3.54
2023-03-17T02:42:46.841Z,-3.50
2023-03-17T02:45:18.083Z,-3.47
2023-03-17T02:47:51.535Z,-3.44
2023-03-17T02:50:24.949Z,-3.42
2023-03-17T02:52:56.110Z,-3.40
2023-03-17T02:55:27.463Z,-3.40
2023-03-17T02:57:58.298Z,-3.41
2023-03-17T03:00:30.143Z,-3.46
2023-03-17T03:03:01.524Z,-3.49
2023-03-17T03:05:31.403Z,-3.52
2023-03-17T03:08:03.348Z,-3.53
2023-03-17T03:10:34.499Z,-3.53
2023-03-17T03:13:05.714Z,-3.52
2023-03-17T03:15:37.606Z,-3.51
2023-03-17T03:18:08.849Z,-3.51
2023-03-17T03:20:39.979Z,-3.52
2023-03-17T03:23:11.449Z,-3.54
2023-03-17T03:25:43.010Z,-3.55
2023-03-17T03:28:12.392Z,-3.55
2023-03-17T03:30:44.821Z,-3.57
2023-03-17T03:33:17.641Z,-3.57
2023-03-17T03:35:48.743Z,-3.58
2023-03-17T03:38:19.982Z,-3.58
2023-03-17T03:40:51.362Z,-3.59
2023-03-17T03:43:24.060Z,-3.59
2023-03-17T03:45:55.638Z,-3.59
2023-03-17T03:48:26.856Z,-3.61
2023-03-17T03:51:01.205Z,-3.61
2023-03-17T03:53:32.637Z,-3.61
2023-03-17T03:56:03.490Z,-3.61
2023-03-17T03:58:34.508Z,-3.62
2023-03-17T04:01:08.498Z,-3.61
2023-03-17T04:03:39.844Z,-3.57
2023-03-17T04:06:11.446Z,-3.56
2023-03-17T04:08:42.506Z,-3.56
2023-03-17T04:11:13.418Z,-3.59
2023-03-17T04:13:44.551Z,-3.62
2023-03-17T04:16:16.319Z,-3.67
2023-03-17T04:18:47.825Z,-3.64
2023-03-17T04:21:20.665Z,-3.64
2023-03-17T04:23:52.020Z,-3.65
2023-03-17T04:26:23.614Z,-3.66
2023-03-17T04:28:54.726Z,-3.69
2023-03-17T04:31:25.941Z,-3.71
2023-03-17T04:33:56.952Z,-3.72
2023-03-17T04:36:28.078Z,-3.67
2023-03-17T04:38:58.999Z,-3.60
2023-03-17T04:41:30.145Z,-3.55
2023-03-17T04:44:01.174Z,-3.53
2023-03-17T04:46:33.162Z,-3.52
2023-03-17T04:49:04.490Z,-3.55
2023-03-17T04:51:36.891Z,-3.54
2023-03-17T04:54:08.327Z,-3.53
2023-03-17T04:56:39.437Z,-3.54
2023-03-17T04:59:10.585Z,-3.52
2023-03-17T05:01:42.134Z,-3.52
2023-03-17T05:04:22.128Z,-3.52
2023-03-17T05:07:01.729Z,-3.51
2023-03-17T05:09:33.033Z,-3.51
2023-03-17T05:12:04.442Z,-3.50
2023-03-17T05:14:35.487Z,-3.49
2023-03-17T05:17:06.446Z,-3.48
2023-03-17T05:19:37.418Z,-3.47
2023-03-17T05:22:08.475Z,-3.46
2023-03-17T05:24:39.582Z,-3.42
2023-03-17T05:27:10.742Z,-3.31
2023-03-17T05:29:42.432Z,-3.19
2023-03-17T05:32:13.686Z,-3.01
2023-03-17T05:34:46.418Z,-2.88
2023-03-17T05:37:17.759Z,-2.79
2023-03-17T05:39:48.741Z,-2.72
2023-03-17T05:42:19.967Z,-2.68
2023-03-17T05:44:51.239Z,-2.59
2023-03-17T05:47:21.160Z,-2.49
2023-03-17T05:49:52.826Z,-2.36
2023-03-17T05:52:23.941Z,-2.22
2023-03-17T05:54:55.472Z,-2.13
2023-03-17T05:57:24.954Z,-2.03
2023-03-17T05:59:55.927Z,-1.98
2023-03-17T06:02:27.221Z,-1.87
2023-03-17T06:04:58.318Z,-1.77
2023-03-17T06:07:41.005Z,-1.60
2023-03-17T06:10:18.475Z,-1.50
2023-03-17T06:12:49.584Z,-1.32
2023-03-17T06:15:21.287Z,-1.15
2023-03-17T06:17:52.475Z,-1.00
2023-03-17T06:20:23.622Z,-0.86
2023-03-17T06:23:03.898Z,-0.71
2023-03-17T06:25:37.118Z,-0.52
2023-03-17T06:28:08.344Z,-0.35
2023-03-17T06:30:40.753Z,-0.20
2023-03-17T06:33:12.303Z,-0.04
2023-03-17T06:35:43.763Z,0.10
2023-03-17T06:38:13.570Z,0.24
2023-03-17T06:40:44.819Z,0.34
2023-03-17T06:43:15.828Z,0.46
2023-03-17T06:45:46.971Z,0.60
2023-03-17T06:48:18.019Z,0.74
2023-03-17T06:50:50.292Z,0.84
2023-03-17T06:53:22.689Z,0.97
2023-03-17T06:55:53.656Z,1.07
2023-03-17T06:58:24.948Z,1.16
2023-03-17T07:00:55.939Z,1.26
2023-03-17T07:03:28.378Z,1.36
2023-03-17T07:06:01.122Z,1.44
2023-03-17T07:08:32.124Z,1.52
2023-03-17T07:11:04.287Z,1.61
2023-03-17T07:13:37.352Z,1.69
2023-03-17T07:16:09.562Z,1.75
2023-03-17T07:18:40.458Z,1.81
2023-03-17T07:21:11.902Z,1.88
2023-03-17T07:23:43.234Z,1.94
2023-03-17T07:26:14.651Z,2.02
2023-03-17T07:28:44.715Z,2.09
2023-03-17T07:31:15.858Z,2.14
2023-03-17T07:33:47.052Z,2.22
2023-03-17T07:36:18.281Z,2.27
2023-03-17T07:38:49.165Z,2.34
2023-03-17T07:41:22.029Z,2.39
2023-03-17T07:43:53.048Z,2.45
2023-03-17T07:46:24.326Z,2.51
2023-03-17T07:48:55.709Z,2.54
2023-03-17T07:51:28.230Z,2.63
2023-03-17T07:54:04.007Z,2.71
2023-03-17T07:56:35.709Z,2.78
2023-03-17T07:59:07.753Z,2.83
2023-03-17T08:01:40.058Z,2.88
2023-03-17T08:04:12.936Z,2.92
2023-03-17T08:06:46.600Z,2.97
2023-03-17T08:09:17.832Z,3.04
2023-03-17T08:11:49.138Z,3.09
2023-03-17T08:14:18.537Z,3.14
2023-03-17T08:16:50.137Z,3.16
2023-03-17T08:19:22.146Z,3.20
2023-03-17T08:21:53.576Z,3.22
2023-03-17T08:24:24.656Z,3.24
2023-03-17T08:26:55.580Z,3.27
2023-03-17T08:29:26.751Z,3.33
2023-03-17T08:31:57.876Z,3.37
2023-03-17T08:34:29.213Z,3.43
2023-03-17T08:37:00.919Z,3.50
2023-03-17T08:39:32.297Z,3.55
2023-03-17T08:42:03.950Z,3.60
2023-03-17T08:44:35.739Z,3.65
2023-03-17T08:47:07.224Z,3.69
2023-03-17T08:49:38.662Z,3.73
2023-03-17T08:52:10.059Z,3.78
2023-03-17T08:54:39.291Z,3.86
2023-03-17T08:57:10.747Z,3.92
2023-03-17T08:59:42.402Z,4.00
2023-03-17T09:02:16.007Z,4.07
2023-03-17T09:04:48.320Z,4.16
2023-03-17T09:07:19.462Z,4.24
2023-03-17T09:09:50.800Z,4.33
2023-03-17T09:12:22.274Z,4.43
2023-03-17T09:14:53.614Z,4.56
2023-03-17T09:17:23.375Z,4.67
2023-03-17T09:19:54.423Z,4.75
2023-03-17T09:22:25.341Z,4.85
2023-03-17T09:24:56.500Z,4.92
2023-03-17T09:27:27.740Z,5.02
2023-03-17T09:29:57.101Z,5.09
2023-03-17T09:32:28.493Z,5.21
2023-03-17T09:34:59.410Z,5.33
2023-03-17T09:37:30.732Z,5.43
2023-03-17T09:40:02.293Z,5.55
2023-03-17T09:42:47.542Z,5.62
2023-03-17T09:45:32.639Z,5.69
2023-03-17T09:48:26.265Z,5.83
2023-03-17T09:51:02.330Z,5.91
2023-03-17T09:53:36.391Z,5.98
2023-03-17T09:56:13.644Z,6.06
2023-03-17T09:58:51.058Z,6.16
2023-03-17T10:01:23.593Z,6.24
2023-03-17T10:03:54.939Z,6.33
2023-03-17T10:06:35.847Z,6.42
2023-03-17T10:09:17.397Z,6.48
2023-03-17T10:11:52.071Z,6.55
2023-03-17T10:14:39.710Z,6.59
2023-03-17T10:17:18.669Z,6.63
2023-03-17T10:19:57.418Z,6.67
2023-03-17T10:22:33.601Z,6.67
2023-03-17T10:25:15.002Z,6.69
2023-03-17T10:27:50.131Z,6.72
2023-03-17T10:30:24.050Z,6.76
2023-03-17T10:33:00.026Z,6.78
2023-03-17T10:35:36.101Z,6.83
2023-03-17T10:38:18.087Z,6.90
2023-03-17T10:40:57.495Z,6.96
2023-03-17T10:43:31.869Z,7.02
2023-03-17T10:46:05.629Z,7.08
2023-03-17T10:48:40.000Z,7.16
2023-03-17T10:51:12.919Z,7.25
2023-03-17T10:53:44.468Z,7.37
2023-03-17T10:56:27.856Z,7.50
2023-03-17T10:59:05.823Z,7.55
2023-03-17T11:01:41.502Z,7.60
2023-03-17T11:04:35.686Z,7.64
2023-03-17T11:07:17.539Z,7.72
2023-03-17T11:09:52.022Z,7.78
2023-03-17T11:12:29.295Z,7.84
2023-03-17T11:15:03.801Z,7.87
2023-03-17T11:17:45.558Z,7.91
2023-03-17T11:20:30.416Z,7.97
2023-03-17T11:23:08.849Z,8.05
2023-03-17T11:25:45.175Z,8.10
2023-03-17T11:28:22.048Z,8.14
2023-03-17T11:31:07.490Z,8.21
2023-03-17T11:33:50.754Z,8.22
2023-03-17T11:36:39.134Z,8.25
2023-03-17T11:39:17.448Z,8.29
2023-03-17T11:42:10.808Z,8.33
2023-03-17T11:45:09.861Z,8.40
2023-03-17T11:47:50.371Z,8.47
2023-03-17T11:50:29.268Z,8.55
2023-03-17T11:53:15.245Z,8.66
2023-03-17T11:55:50.296Z,8.74
2023-03-17T11:58:35.546Z,8.76
2023-03-17T12:01:09.495Z,8.78
2023-03-17T12:03:46.299Z,8.80
2023-03-17T12:06:22.633Z,8.82
2023-03-17T12:08:59.870Z,8.85
2023-03-17T12:11:35.098Z,8.87
2023-03-17T12:14:14.063Z,8.93
2023-03-17T12:16:51.237Z,8.96
2023-03-17T12:19:28.058Z,8.97
2023-03-17T12:22:04.506Z,9.03
2023-03-17T12:24:40.914Z,9.07
2023-03-17T12:27:16.978Z,9.09
2023-03-17T12:29:53.373Z,9.10
2023-03-17T12:32:30.451Z,9.12
2023-03-17T12:35:00.947Z,9.14
2023-03-17T12:37:32.233Z,9.13
2023-03-17T12:40:09.899Z,9.16
2023-03-17T12:42:53.733Z,9.21
2023-03-17T12:45:46.147Z,9.28
2023-03-17T12:48:40.744Z,9.38
2023-03-17T12:51:37.240Z,9.47
2023-03-17T12:54:19.032Z,9.51
2023-03-17T12:56:51.760Z,9.55
2023-03-17T12:59:26.497Z,9.58
2023-03-17T13:02:06.436Z,9.65
2023-03-17T13:04:38.306Z,9.74
2023-03-17T13:07:16.201Z,9.81
2023-03-17T13:09:50.802Z,9.87
2023-03-17T13:12:52.549Z,9.93
2023-03-17T13:15:48.596Z,9.94
2023-03-17T13:18:50.119Z,9.96
2023-03-17T13:21:25.054Z,10.01
2023-03-17T13:24:20.514Z,10.09
2023-03-17T13:26:57.501Z,10.16
2023-03-17T13:29:48.856Z,10.23
2023-03-17T13:32:40.044Z,10.24
2023-03-17T13:35:40.744Z,10.29
2023-03-17T13:38:39.779Z,10.34
2023-03-17T13:41:34.599Z,10.36
2023-03-17T13:44:16.740Z,10.40
2023-03-17T13:46:48.695Z,10.45
2023-03-17T13:49:28.678Z,10.49
2023-03-17T13:52:04.438Z,10.56
2023-03-17T13:54:42.294Z,10.63
2023-03-17T13:57:28.790Z,10.69
2023-03-17T14:00:22.798Z,10.73
2023-03-17T14:03:04.944Z,10.79
2023-03-17T14:05:38.343Z,10.82
2023-03-17T14:08:20.230Z,10.85
2023-03-17T14:10:57.269Z,10.89
2023-03-17T14:13:33.163Z,10.91
2023-03-17T14:16:13.511Z,10.93
2023-03-17T14:18:49.619Z,10.96
2023-03-17T14:21:26.700Z,10.98
2023-03-17T14:24:00.182Z,11.03
2023-03-17T14:26:33.395Z,11.07
2023-03-17T14:29:06.122Z,11.10
2023-03-17T14:31:38.122Z,11.09
2023-03-17T14:34:16.125Z,11.09
2023-03-17T14:36:47.367Z,11.11
2023-03-17T14:39:27.004Z,11.12
2023-03-17T14:42:02.994Z,11.15
2023-03-17T14:44:40.993Z,11.20
2023-03-17T14:47:20.375Z,11.45
2023-03-17T14:49:51.969Z,12.35
2023-03-17T14:52:25.742Z,13.27
2023-03-17T14:54:59.574Z,14.03
2023-03-17T14:57:34.629Z,14.55
2023-03-17T15:00:29.034Z,14.91
2023-03-17T15:03:03.333Z,15.38
2023-03-17T15:05:40.781Z,15.70
2023-03-17T15:08:39.694Z,15.85
2023-03-17T15:11:17.003Z,15.91
2023-03-17T15:13:49.153Z,15.97
2023-03-17T15:16:25.042Z,16.03
2023-03-17T15:19:05.225Z,15.96
2023-03-17T15:21:42.414Z,15.83
2023-03-17T15:24:40.178Z,15.71
2023-03-17T15:27:17.402Z,15.67
2023-03-17T15:29:49.037Z,15.67
2023-03-17T15:32:22.494Z,15.74
2023-03-17T15:34:55.610Z,15.62
2023-03-17T15:37:29.659Z,15.53
2023-03-17T15:40:01.276Z,15.46
2023-03-17T15:42:34.552Z,15.35
2023-03-17T15:45:07.271Z,15.14
2023-03-17T15:47:41.714Z,14.89
2023-03-17T15:50:23.980Z,14.68
2023-03-17T15:52:56.252Z,14.48
2023-03-17T15:55:30.471Z,14.30
2023-03-17T15:58:01.518Z,14.12
2023-03-17T16:00:33.583Z,13.94
2023-03-17T16:03:13.514Z,13.72
2023-03-17T16:05:45.652Z,13.58
2023-03-17T16:08:17.977Z,13.40
2023-03-17T16:10:49.401Z,13.16
2023-03-17T16:13:20.465Z,12.98
2023-03-17T16:15:57.147Z,12.80
2023-03-17T16:18:34.035Z,12.65
2023-03-17T16:21:06.136Z,12.53
2023-03-17T16:23:38.489Z,12.35
2023-03-17T16:26:16.154Z,12.20
2023-03-17T16:28:49.468Z,12.06
2023-03-17T16:31:24.748Z,11.83
2023-03-17T16:33:56.272Z,11.56
2023-03-17T16:36:28.344Z,11.32
2023-03-17T16:39:00.208Z,11.06
2023-03-17T16:41:35.755Z,10.80
2023-03-17T16:44:09.452Z,10.52
2023-03-17T16:46:44.919Z,10.29
2023-03-17T16:49:18.498Z,10.02
2023-03-17T16:51:50.599Z,9.79
2023-03-17T16:54:22.169Z,9.57
2023-03-17T16:56:53.539Z,9.37
2023-03-17T16:59:29.665Z,9.19
2023-03-17T17:02:02.122Z,8.99
2023-03-17T17:04:36.778Z,8.78
2023-03-17T17:07:07.746Z,8.55
2023-03-17T17:09:38.746Z,8.30
2023-03-17T17:12:08.850Z,8.08
2023-03-17T17:14:42.764Z,7.85
2023-03-17T17:17:12.136Z,7.63
2023-03-17T17:19:41.873Z,7.38
2023-03-17T17:22:13.830Z,7.14
2023-03-17T17:24:44.991Z,6.93
2023-03-17T17:27:15.954Z,6.72
2023-03-17T17:29:47.407Z,6.54
2023-03-17T17:32:19.726Z,6.37
2023-03-17T17:34:50.901Z,6.23
2023-03-17T17:37:21.900Z,6.07
2023-03-17T17:39:53.357Z,5.93
2023-03-17T17:42:24.428Z,5.80
2023-03-17T17:44:53.812Z,5.66
2023-03-17T17:47:25.022Z,5.50
2023-03-17T17:49:56.156Z,5.38
2023-03-17T17:52:25.733Z,5.30
2023-03-17T17:54:57.273Z,5.17
2023-03-17T17:57:28.493Z,5.08
2023-03-17T17:59:59.480Z,5.01
2023-03-17T18:02:30.736Z,4.96
2023-03-17T18:05:01.929Z,4.88
2023-03-17T18:07:34.399Z,4.77
2023-03-17T18:10:06.209Z,4.68
2023-03-17T18:12:38.016Z,4.63
2023-03-17T18:15:11.273Z,4.58
2023-03-17T18:17:43.142Z,4.51
2023-03-17T18:20:17.072Z,4.43
2023-03-17T18:22:48.430Z,4.36
2023-03-17T18:25:20.323Z,4.29
2023-03-17T18:27:51.371Z,4.23
2023-03-17T18:30:26.821Z,4.17
2023-03-17T18:33:01.600Z,4.11
2023-03-17T18:35:33.398Z,4.06
2023-03-17T18:38:04.839Z,4.00
2023-03-17T18:40:36.188Z,3.89
2023-03-17T18:43:07.302Z,3.85
2023-03-17T18:45:38.931Z,3.78
2023-03-17T18:48:08.430Z,3.74
2023-03-17T18:50:39.536Z,3.67
2023-03-17T18:53:18.389Z,3.62
2023-03-17T18:55:49.664Z,3.55
2023-03-17T18:58:20.725Z,3.51
2023-03-17T19:00:53.566Z,3.42
2023-03-17T19:03:32.288Z,3.38
2023-03-17T19:06:13.849Z,3.31
2023-03-17T19:08:46.206Z,3.25
2023-03-17T19:11:20.978Z,3.19
2023-03-17T19:13:52.737Z,3.15
2023-03-17T19:16:28.910Z,3.13
2023-03-17T19:19:01.172Z,3.11
2023-03-17T19:21:32.739Z,3.09
2023-03-17T19:24:05.063Z,3.02
2023-03-17T19:26:37.485Z,3.02
2023-03-17T19:29:09.895Z,2.93
2023-03-17T19:31:41.697Z,2.86
2023-03-17T19:34:15.247Z,2.81
2023-03-17T19:36:48.292Z,2.75
2023-03-17T19:39:19.812Z,2.71
2023-03-17T19:41:55.055Z,2.67
2023-03-17T19:44:27.163Z,2.64
2023-03-17T19:46:58.355Z,2.63
2023-03-17T19:49:29.544Z,2.63
2023-03-17T19:52:00.548Z,2.63
2023-03-17T19:54:31.920Z,2.63
2023-03-17T19:57:03.055Z,2.62
2023-03-17T19:59:34.127Z,2.66
2023-03-17T20:02:06.186Z,2.69
2023-03-17T20:04:37.963Z,2.69
2023-03-17T20:07:08.983Z,2.68
2023-03-17T20:09:40.214Z,2.67
2023-03-17T20:12:11.453Z,2.67
2023-03-17T20:14:41.271Z,2.69
2023-03-17T20:17:13.966Z,2.75
2023-03-17T20:19:44.985Z,2.80
2023-03-17T20:22:16.126Z,2.88
2023-03-17T20:24:48.013Z,2.89
2023-03-17T20:27:19.722Z,2.91
2023-03-17T20:29:51.575Z,2.90
2023-03-17T20:32:23.109Z,2.93
2023-03-17T20:34:54.420Z,2.99
2023-03-17T20:37:25.897Z,3.04
2023-03-17T20:39:57.607Z,3.08
2023-03-17T20:42:28.907Z,3.13
2023-03-17T20:45:00.844Z,3.13
2023-03-17T20:47:33.824Z,3.13
2023-03-17T20:50:06.407Z,3.13
2023-03-17T20:52:38.289Z,3.18
2023-03-17T20:55:13.948Z,3.18
2023-03-17T20:57:47.565Z,3.18
2023-03-17T21:00:22.150Z,3.16
2023-03-17T21:02:53.857Z,3.21
2023-03-17T21:05:27.598Z,3.25
2023-03-17T21:07:58.893Z,3.32
2023-03-17T21:10:30.248Z,3.35
2023-03-17T21:13:01.510Z,3.36
2023-03-17T21:15:32.550Z,3.40
2023-03-17T21:18:02.179Z,3.44
2023-03-17T21:20:33.621Z,3.48
2023-03-17T21:23:07.972Z,3.53
2023-03-17T21:25:39.074Z,3.56
2023-03-17T21:28:11.239Z,3.56
2023-03-17T21:30:44.952Z,3.55
2023-03-17T21:33:16.165Z,3.55
2023-03-17T21:35:47.495Z,3.49
2023-03-17T21:38:18.604Z,3.49
2023-03-17T21:40:49.915Z,3.46
2023-03-17T21:43:19.451Z,3.45
2023-03-17T21:45:50.598Z,3.41
2023-03-17T21:48:20.838Z,3.44
2023-03-17T21:50:52.064Z,3.40
2023-03-17T21:53:23.406Z,3.38
2023-03-17T21:55:54.577Z,3.37
2023-03-17T21:58:24.448Z,3.37
2023-03-17T22:00:55.430Z,3.34
2023-03-17T22:03:26.441Z,3.33
2023-03-17T22:05:56.692Z,3.30
2023-03-17T22:08:28.836Z,3.25
2023-03-17T22:11:00.199Z,3.24
2023-03-17T22:13:31.283Z,3.25
2023-03-17T22:16:04.005Z,3.25
2023-03-17T22:18:35.072Z,3.27
2023-03-17T22:21:08.322Z,3.26
2023-03-17T22:23:42.279Z,3.22
2023-03-17T22:26:15.798Z,3.25
2023-03-17T22:28:50.102Z,3.23
2023-03-17T22:31:23.237Z,3.24
2023-03-17T22:33:56.870Z,3.23
2023-03-17T22:36:28.577Z,3.22
2023-03-17T22:39:00.431Z,3.22
2023-03-17T22:41:32.465Z,3.20
2023-03-17T22:44:03.935Z,3.12
2023-03-17T22:46:35.189Z,3.15
2023-03-17T22:49:04.693Z,3.14
2023-03-17T22:51:36.671Z,3.09
2023-03-17T22:54:08.665Z,3.06
2023-03-17T22:56:40.188Z,3.05
2023-03-17T22:59:11.645Z,3.05
2023-03-17T23:01:42.800Z,3.04
2023-03-17T23:04:14.175Z,2.99
2023-03-17T23:06:45.237Z,2.97
2023-03-17T23:09:15.070Z,2.97
2023-03-17T23:11:47.461Z,2.96
2023-03-17T23:14:18.767Z,2.94
2023-03-17T23:16:49.851Z,2.93
2023-03-17T23:19:21.330Z,2.91
2023-03-17T23:21:52.283Z,2.90
2023-03-17T23:24:23.473Z,2.92
2023-03-17T23:26:55.167Z,2.93
2023-03-17T23:29:27.910Z,2.92
2023-03-17T23:31:58.976Z,2.89
2023-03-17T23:34:30.857Z,2.86
2023-03-17T23:37:01.688Z,2.84
2023-03-17T23:39:33.617Z,2.82
2023-03-17T23:42:05.058Z,2.81
2023-03-17T23:44:36.238Z,2.80
2023-03-17T23:47:07.866Z,2.79
2023-03-17T23:49:38.924Z,2.76
2023-03-17T23:52:10.453Z,2.73
2023-03-17T23:54:41.459Z,2.66
2023-03-17T23:57:13.048Z,2.64
2023-03-17T23:59:44.395Z,2.62
